Flight Track Log - Related Links

Times and Time Zones

All times are in EDT time to prevent confusion due to time zone crossing. See the CTL17 flight status page for this flight to view local times or setup timezone preferences in your user account.

Time Position Orientation Groundspeed Altitude Reporting Facility
EDT Latitude Longitude Course Direction KTS MPH feet Rate Location/Type
Tue 05:56:37 PM 42.2150 -83.5692 234° Southwest 118 136 1,500  Level Cleveland Center
Tue 05:57:44 PM 42.1808 -83.6039 217° Southwest 142 163 2,400 651 Climbing Cleveland Center
Tue 05:58:46 PM 42.1486 -83.6333 214° Southwest 140 161 2,900 308 Climbing Cleveland Center
Tue 05:59:41 PM 42.1161 -83.6064 148° Southeast 151 174 3,000 51 Climbing Cleveland Center
Tue 06:00:43 PM 42.0750 -83.5850 159° South 159 183 3,000  Level Cleveland Center
Tue 06:02:00 PM 42.0553 -83.5154 111° Southeast  Level Estimated
Tue 06:02:45 PM 42.0342 -83.4683 111° Southeast 159 183 3,000  Level Cleveland Center
Tue 06:03:52 PM 42.0167 -83.4117 113° Southeast 160 184 3,000  Level Cleveland Center
Tue 06:04:53 PM 41.9972 -83.3550 115° Southeast 161 185 3,000 146 Level Cleveland Center
Tue 06:05:55 PM 41.9819 -83.2983 110° East 164 189 3,300 390 Climbing Cleveland Center
Tue 06:06:56 PM 41.9647 -83.2389 111° Southeast 153 176 3,800 488 Climbing Cleveland Center
Tue 06:07:58 PM 41.9492 -83.1881 112° Southeast 154 177 4,300 465 Climbing Cleveland Center
Tue 06:09:05 PM 41.9317 -83.1258 111° Southeast 155 178 4,800 387 Climbing Cleveland Center
Tue 06:10:02 PM 41.9161 -83.0750 112° Southeast 157 181 5,100 170 Climbing Cleveland Center
Tue 06:10:51 PM 41.9044 -83.0356 112° Southeast 162 186 5,100 -52 Level Cleveland Center
Tue 06:11:58 PM 41.8831 -82.9650 112° Southeast 174 200 5,000  Descending Cleveland Center
Tue 06:12:58 PM 41.8614 -82.9000 114° Southeast 168 193 5,100 52 Climbing Cleveland Center
Tue 06:13:53 PM 41.8478 -82.8494 110° East 167 192 5,100  Level Cleveland Center
Tue 06:14:48 PM 41.8344 -82.7931 108° East 171 197 5,100  Level Cleveland Center
Tue 06:15:55 PM 41.8128 -82.7283 114° Southeast 171 197 5,100  Level Cleveland Center
Tue 06:17:02 PM 41.7950 -82.6664 111° Southeast 169 194 5,100  Level Cleveland Center
Tue 06:18:02 PM 41.7794 -82.6075 109° East 169 194 5,100  Level Cleveland Center
Tue 06:19:03 PM 41.7597 -82.5456 113° Southeast 168 193 5,100  Level Cleveland Center
Tue 06:19:58 PM 41.7461 -82.4922 109° East 165 190 5,100  Level Cleveland Center
Tue 06:20:59 PM 41.7281 -82.4361 113° Southeast 169 194 5,100  Level Cleveland Center
Tue 06:21:53 PM 41.7144 -82.3800 108° East 167 192 5,100 -283 Level Cleveland Center
Tue 06:23:06 PM 41.6928 -82.3072 112° Southeast 175 201 4,500 -493 Descending Cleveland Center
Tue 06:24:07 PM 41.6747 -82.2456 111° Southeast 177 204 4,000 -446 Descending Cleveland Center
Tue 06:25:07 PM 41.6569 -82.1867 112° Southeast 170 196 3,600 -470 Descending Cleveland Center
Tue 06:26:02 PM 41.6408 -82.1336 112° Southeast 167 192 3,100 -466 Descending Cleveland Center
Tue 06:27:03 PM 41.6250 -82.0719 109° East 174 200 2,700 -362 Descending Cleveland Center
Tue 06:27:58 PM 41.6092 -82.0189 112° Southeast 163 188 2,400 -365 Descending Cleveland Center
Tue 06:28:58 PM 41.5931 -81.9603 110° East 164 189 2,000 -298 Descending Cleveland Center
Tue 06:29:59 PM 41.5792 -81.9044 108° East 163 188 1,800 -94 Descending Cleveland Center
Tue 06:31:06 PM 41.5611 -81.8458 112° Southeast 157 181 1,800 -94 Level Cleveland Center
Tue 06:32:06 PM 41.5472 -81.7928 109° East 153 176 1,600 -198 Descending Cleveland Center
Tue 06:33:07 PM 41.5267 -81.7453 120° Southeast 149 171 1,400 -344 Descending Cleveland Center
Tue 06:34:08 PM 41.5083 -81.7061 122° Southeast 122 140 900 -492 Descending Cleveland Center

Login

Don't have an account? Register now (free) for customized features, flight alerts, and more!